sensor_id;sensor_type;location;lat;lon;timestamp;P1;durP1;ratioP1;P2;durP2;ratioP2
16282;SDS011;8249;48.708;9.030;2022-08-21T00:00:52;4.50;;;2.87;;
16282;SDS011;8249;48.708;9.030;2022-08-21T00:03:19;3.23;;;2.83;;
16282;SDS011;8249;48.708;9.030;2022-08-21T00:05:47;4.03;;;3.10;;
16282;SDS011;8249;48.708;9.030;2022-08-21T00:08:15;3.00;;;2.70;;
16282;SDS011;8249;48.708;9.030;2022-08-21T00:10:42;3.03;;;2.73;;
16282;SDS011;8249;48.708;9.030;2022-08-21T00:13:12;3.33;;;2.80;;
16282;SDS011;8249;48.708;9.030;2022-08-21T00:15:40;3.27;;;2.43;;
16282;SDS011;8249;48.708;9.030;2022-08-21T00:18:08;3.03;;;2.40;;
16282;SDS011;8249;48.708;9.030;2022-08-21T00:20:37;7.07;;;3.23;;
16282;SDS011;8249;48.708;9.030;2022-08-21T00:23:05;3.67;;;2.87;;
16282;SDS011;8249;48.708;9.030;2022-08-21T00:25:32;4.97;;;2.60;;
16282;SDS011;8249;48.708;9.030;2022-08-21T00:28:00;3.47;;;2.60;;
16282;SDS011;8249;48.708;9.030;2022-08-21T00:30:29;4.23;;;2.60;;
16282;SDS011;8249;48.708;9.030;2022-08-21T00:32:56;3.93;;;2.90;;
16282;SDS011;8249;48.708;9.030;2022-08-21T00:35:25;2.70;;;2.47;;
16282;SDS011;8249;48.708;9.030;2022-08-21T00:37:54;3.20;;;2.70;;
16282;SDS011;8249;48.708;9.030;2022-08-21T00:40:23;3.03;;;2.73;;
16282;SDS011;8249;48.708;9.030;2022-08-21T00:42:52;3.23;;;2.43;;
16282;SDS011;8249;48.708;9.030;2022-08-21T00:45:19;3.63;;;2.70;;
16282;SDS011;8249;48.708;9.030;2022-08-21T00:47:48;4.63;;;2.83;;
16282;SDS011;8249;48.708;9.030;2022-08-21T00:50:15;3.17;;;2.87;;
16282;SDS011;8249;48.708;9.030;2022-08-21T00:52:42;2.70;;;2.50;;
16282;SDS011;8249;48.708;9.030;2022-08-21T00:55:11;2.93;;;2.47;;
16282;SDS011;8249;48.708;9.030;2022-08-21T00:57:40;3.07;;;2.70;;
16282;SDS011;8249;48.708;9.030;2022-08-21T01:00:13;4.57;;;2.77;;
16282;SDS011;8249;48.708;9.030;2022-08-21T01:02:44;4.83;;;2.73;;
16282;SDS011;8249;48.708;9.030;2022-08-21T01:05:13;2.80;;;2.60;;
16282;SDS011;8249;48.708;9.030;2022-08-21T01:07:41;4.83;;;2.90;;
16282;SDS011;8249;48.708;9.030;2022-08-21T01:10:10;3.67;;;2.70;;
16282;SDS011;8249;48.708;9.030;2022-08-21T01:12:39;3.73;;;2.40;;
16282;SDS011;8249;48.708;9.030;2022-08-21T01:15:07;6.20;;;2.70;;
16282;SDS011;8249;48.708;9.030;2022-08-21T01:17:36;2.67;;;2.47;;
16282;SDS011;8249;48.708;9.030;2022-08-21T01:20:04;2.90;;;2.70;;
16282;SDS011;8249;48.708;9.030;2022-08-21T01:22:36;3.10;;;2.90;;
16282;SDS011;8249;48.708;9.030;2022-08-21T01:25:03;3.10;;;2.77;;
16282;SDS011;8249;48.708;9.030;2022-08-21T01:27:32;2.70;;;2.50;;
16282;SDS011;8249;48.708;9.030;2022-08-21T01:29:59;5.13;;;2.83;;
16282;SDS011;8249;48.708;9.030;2022-08-21T01:32:34;3.00;;;2.80;;
16282;SDS011;8249;48.708;9.030;2022-08-21T01:35:01;4.10;;;2.90;;
16282;SDS011;8249;48.708;9.030;2022-08-21T01:37:29;3.77;;;2.50;;
16282;SDS011;8249;48.708;9.030;2022-08-21T01:39:57;4.07;;;2.73;;
16282;SDS011;8249;48.708;9.030;2022-08-21T01:42:25;3.00;;;2.80;;
16282;SDS011;8249;48.708;9.030;2022-08-21T01:44:52;3.10;;;2.80;;
16282;SDS011;8249;48.708;9.030;2022-08-21T01:47:19;3.03;;;2.70;;
16282;SDS011;8249;48.708;9.030;2022-08-21T01:49:46;4.67;;;2.90;;
16282;SDS011;8249;48.708;9.030;2022-08-21T01:52:13;4.80;;;3.13;;
16282;SDS011;8249;48.708;9.030;2022-08-21T01:54:40;3.20;;;2.80;;
16282;SDS011;8249;48.708;9.030;2022-08-21T01:57:09;2.87;;;2.50;;
16282;SDS011;8249;48.708;9.030;2022-08-21T01:59:38;2.80;;;2.60;;
16282;SDS011;8249;48.708;9.030;2022-08-21T02:02:05;3.20;;;2.77;;
16282;SDS011;8249;48.708;9.030;2022-08-21T02:04:32;5.20;;;2.80;;
16282;SDS011;8249;48.708;9.030;2022-08-21T02:07:00;3.97;;;2.70;;
16282;SDS011;8249;48.708;9.030;2022-08-21T02:09:27;4.13;;;3.00;;
16282;SDS011;8249;48.708;9.030;2022-08-21T02:11:54;4.40;;;2.70;;
16282;SDS011;8249;48.708;9.030;2022-08-21T02:14:23;3.83;;;2.80;;
16282;SDS011;8249;48.708;9.030;2022-08-21T02:16:50;3.00;;;2.80;;
16282;SDS011;8249;48.708;9.030;2022-08-21T02:19:17;2.80;;;2.60;;
16282;SDS011;8249;48.708;9.030;2022-08-21T02:21:43;4.23;;;2.70;;
16282;SDS011;8249;48.708;9.030;2022-08-21T02:24:11;2.90;;;2.40;;
16282;SDS011;8249;48.708;9.030;2022-08-21T02:26:38;4.13;;;2.93;;
16282;SDS011;8249;48.708;9.030;2022-08-21T02:29:05;6.77;;;2.70;;
16282;SDS011;8249;48.708;9.030;2022-08-21T02:31:33;2.93;;;2.70;;
16282;SDS011;8249;48.708;9.030;2022-08-21T02:34:00;4.17;;;3.03;;
16282;SDS011;8249;48.708;9.030;2022-08-21T02:36:27;3.13;;;2.90;;
16282;SDS011;8249;48.708;9.030;2022-08-21T02:38:54;3.03;;;2.50;;
16282;SDS011;8249;48.708;9.030;2022-08-21T02:41:22;3.40;;;3.10;;
16282;SDS011;8249;48.708;9.030;2022-08-21T02:43:49;4.27;;;2.90;;
16282;SDS011;8249;48.708;9.030;2022-08-21T02:46:17;2.77;;;2.57;;
16282;SDS011;8249;48.708;9.030;2022-08-21T02:48:46;3.20;;;2.90;;
16282;SDS011;8249;48.708;9.030;2022-08-21T02:51:15;4.10;;;2.93;;
16282;SDS011;8249;48.708;9.030;2022-08-21T02:53:43;3.20;;;2.93;;
16282;SDS011;8249;48.708;9.030;2022-08-21T02:56:12;6.60;;;2.90;;
16282;SDS011;8249;48.708;9.030;2022-08-21T02:58:43;3.77;;;3.00;;
16282;SDS011;8249;48.708;9.030;2022-08-21T03:01:11;3.60;;;3.03;;
16282;SDS011;8249;48.708;9.030;2022-08-21T03:03:38;3.43;;;2.73;;
16282;SDS011;8249;48.708;9.030;2022-08-21T03:06:09;5.20;;;3.40;;
16282;SDS011;8249;48.708;9.030;2022-08-21T03:08:38;3.63;;;2.77;;
16282;SDS011;8249;48.708;9.030;2022-08-21T03:11:05;2.73;;;2.53;;
16282;SDS011;8249;48.708;9.030;2022-08-21T03:13:32;3.10;;;2.90;;
16282;SDS011;8249;48.708;9.030;2022-08-21T03:16:00;3.10;;;2.80;;
16282;SDS011;8249;48.708;9.030;2022-08-21T03:18:27;3.93;;;3.43;;
16282;SDS011;8249;48.708;9.030;2022-08-21T03:20:54;6.27;;;3.30;;
16282;SDS011;8249;48.708;9.030;2022-08-21T03:23:22;3.37;;;3.03;;
16282;SDS011;8249;48.708;9.030;2022-08-21T03:25:49;3.30;;;2.70;;
16282;SDS011;8249;48.708;9.030;2022-08-21T03:28:17;4.67;;;3.17;;
16282;SDS011;8249;48.708;9.030;2022-08-21T03:30:49;3.97;;;2.70;;
16282;SDS011;8249;48.708;9.030;2022-08-21T03:33:17;3.13;;;2.83;;
16282;SDS011;8249;48.708;9.030;2022-08-21T03:35:47;3.13;;;2.90;;
16282;SDS011;8249;48.708;9.030;2022-08-21T03:38:22;3.80;;;2.80;;
16282;SDS011;8249;48.708;9.030;2022-08-21T03:40:49;3.40;;;3.10;;
16282;SDS011;8249;48.708;9.030;2022-08-21T03:43:16;4.93;;;3.10;;
16282;SDS011;8249;48.708;9.030;2022-08-21T03:45:43;3.27;;;2.97;;
16282;SDS011;8249;48.708;9.030;2022-08-21T03:48:10;3.30;;;2.97;;
16282;SDS011;8249;48.708;9.030;2022-08-21T03:50:38;5.13;;;3.27;;
16282;SDS011;8249;48.708;9.030;2022-08-21T03:53:07;3.73;;;3.00;;
16282;SDS011;8249;48.708;9.030;2022-08-21T03:55:37;4.43;;;2.90;;
16282;SDS011;8249;48.708;9.030;2022-08-21T03:58:04;3.70;;;2.83;;
16282;SDS011;8249;48.708;9.030;2022-08-21T04:00:31;5.30;;;3.20;;
16282;SDS011;8249;48.708;9.030;2022-08-21T04:02:58;3.53;;;3.00;;
16282;SDS011;8249;48.708;9.030;2022-08-21T04:05:25;3.40;;;3.03;;
16282;SDS011;8249;48.708;9.030;2022-08-21T04:07:56;3.73;;;2.90;;
16282;SDS011;8249;48.708;9.030;2022-08-21T04:10:24;3.00;;;2.80;;
16282;SDS011;8249;48.708;9.030;2022-08-21T04:12:54;3.30;;;3.00;;
16282;SDS011;8249;48.708;9.030;2022-08-21T04:15:21;3.23;;;2.90;;
16282;SDS011;8249;48.708;9.030;2022-08-21T04:17:50;5.37;;;3.30;;
16282;SDS011;8249;48.708;9.030;2022-08-21T04:20:17;4.67;;;3.17;;
16282;SDS011;8249;48.708;9.030;2022-08-21T04:22:46;5.23;;;3.00;;
16282;SDS011;8249;48.708;9.030;2022-08-21T04:25:14;3.20;;;2.90;;
16282;SDS011;8249;48.708;9.030;2022-08-21T04:27:41;3.57;;;3.17;;
16282;SDS011;8249;48.708;9.030;2022-08-21T04:30:11;3.83;;;3.13;;
16282;SDS011;8249;48.708;9.030;2022-08-21T04:32:41;3.33;;;3.03;;
16282;SDS011;8249;48.708;9.030;2022-08-21T04:35:10;3.27;;;2.90;;
16282;SDS011;8249;48.708;9.030;2022-08-21T04:37:37;5.47;;;3.37;;
16282;SDS011;8249;48.708;9.030;2022-08-21T04:40:05;3.20;;;2.90;;
16282;SDS011;8249;48.708;9.030;2022-08-21T04:42:40;4.37;;;3.40;;
16282;SDS011;8249;48.708;9.030;2022-08-21T04:45:13;3.20;;;3.00;;
16282;SDS011;8249;48.708;9.030;2022-08-21T04:47:47;3.77;;;3.20;;
16282;SDS011;8249;48.708;9.030;2022-08-21T04:50:15;3.67;;;2.97;;
16282;SDS011;8249;48.708;9.030;2022-08-21T04:53:01;6.00;;;3.23;;
16282;SDS011;8249;48.708;9.030;2022-08-21T04:55:29;6.57;;;3.30;;
16282;SDS011;8249;48.708;9.030;2022-08-21T04:57:56;3.53;;;3.20;;
16282;SDS011;8249;48.708;9.030;2022-08-21T05:00:25;4.47;;;2.93;;
16282;SDS011;8249;48.708;9.030;2022-08-21T05:02:52;4.33;;;2.93;;
16282;SDS011;8249;48.708;9.030;2022-08-21T05:05:24;6.23;;;3.43;;
16282;SDS011;8249;48.708;9.030;2022-08-21T05:07:51;3.83;;;2.90;;
16282;SDS011;8249;48.708;9.030;2022-08-21T05:10:19;5.13;;;3.20;;
16282;SDS011;8249;48.708;9.030;2022-08-21T05:12:46;3.27;;;3.00;;
16282;SDS011;8249;48.708;9.030;2022-08-21T05:15:14;4.90;;;3.40;;
16282;SDS011;8249;48.708;9.030;2022-08-21T05:17:43;4.30;;;3.00;;
16282;SDS011;8249;48.708;9.030;2022-08-21T05:20:10;4.37;;;3.40;;
16282;SDS011;8249;48.708;9.030;2022-08-21T05:22:38;3.50;;;3.20;;
16282;SDS011;8249;48.708;9.030;2022-08-21T05:25:06;3.60;;;3.40;;
16282;SDS011;8249;48.708;9.030;2022-08-21T05:27:35;3.80;;;3.20;;
16282;SDS011;8249;48.708;9.030;2022-08-21T05:30:02;3.83;;;3.47;;
16282;SDS011;8249;48.708;9.030;2022-08-21T05:32:30;4.33;;;3.40;;
16282;SDS011;8249;48.708;9.030;2022-08-21T05:34:59;4.80;;;3.60;;
16282;SDS011;8249;48.708;9.030;2022-08-21T05:37:26;5.60;;;3.30;;
16282;SDS011;8249;48.708;9.030;2022-08-21T05:39:53;3.50;;;3.20;;
16282;SDS011;8249;48.708;9.030;2022-08-21T05:42:20;3.43;;;3.13;;
16282;SDS011;8249;48.708;9.030;2022-08-21T05:44:47;3.50;;;3.20;;
16282;SDS011;8249;48.708;9.030;2022-08-21T05:47:14;3.73;;;3.37;;
16282;SDS011;8249;48.708;9.030;2022-08-21T05:49:41;3.60;;;3.20;;
16282;SDS011;8249;48.708;9.030;2022-08-21T05:52:09;3.67;;;3.20;;
16282;SDS011;8249;48.708;9.030;2022-08-21T05:54:36;3.63;;;3.33;;
16282;SDS011;8249;48.708;9.030;2022-08-21T05:57:03;4.63;;;3.47;;
16282;SDS011;8249;48.708;9.030;2022-08-21T05:59:30;5.37;;;3.10;;
16282;SDS011;8249;48.708;9.030;2022-08-21T06:01:57;3.40;;;3.10;;
16282;SDS011;8249;48.708;9.030;2022-08-21T06:04:24;3.23;;;2.90;;
16282;SDS011;8249;48.708;9.030;2022-08-21T06:06:52;4.37;;;3.00;;
16282;SDS011;8249;48.708;9.030;2022-08-21T06:09:20;4.23;;;3.27;;
16282;SDS011;8249;48.708;9.030;2022-08-21T06:11:47;4.60;;;3.70;;
16282;SDS011;8249;48.708;9.030;2022-08-21T06:14:14;4.27;;;3.13;;
16282;SDS011;8249;48.708;9.030;2022-08-21T06:16:42;6.47;;;3.47;;
16282;SDS011;8249;48.708;9.030;2022-08-21T06:19:08;4.27;;;3.70;;
16282;SDS011;8249;48.708;9.030;2022-08-21T06:21:36;4.40;;;3.87;;
16282;SDS011;8249;48.708;9.030;2022-08-21T06:24:03;5.30;;;3.60;;
16282;SDS011;8249;48.708;9.030;2022-08-21T06:26:33;4.30;;;3.57;;
16282;SDS011;8249;48.708;9.030;2022-08-21T06:29:00;4.53;;;3.60;;
16282;SDS011;8249;48.708;9.030;2022-08-21T06:31:27;4.90;;;3.67;;
16282;SDS011;8249;48.708;9.030;2022-08-21T06:33:55;4.30;;;3.70;;
16282;SDS011;8249;48.708;9.030;2022-08-21T06:36:22;7.80;;;4.20;;
16282;SDS011;8249;48.708;9.030;2022-08-21T06:38:49;4.47;;;3.77;;
16282;SDS011;8249;48.708;9.030;2022-08-21T06:41:17;4.27;;;3.50;;
16282;SDS011;8249;48.708;9.030;2022-08-21T06:43:46;5.80;;;3.90;;
16282;SDS011;8249;48.708;9.030;2022-08-21T06:46:13;4.43;;;3.40;;
16282;SDS011;8249;48.708;9.030;2022-08-21T06:48:40;4.73;;;3.67;;
16282;SDS011;8249;48.708;9.030;2022-08-21T06:51:07;5.93;;;3.60;;
16282;SDS011;8249;48.708;9.030;2022-08-21T06:53:34;3.90;;;3.10;;
16282;SDS011;8249;48.708;9.030;2022-08-21T06:56:01;6.13;;;3.80;;
16282;SDS011;8249;48.708;9.030;2022-08-21T06:58:29;7.47;;;3.40;;
16282;SDS011;8249;48.708;9.030;2022-08-21T07:00:57;6.07;;;3.77;;
16282;SDS011;8249;48.708;9.030;2022-08-21T07:03:26;4.77;;;3.13;;
16282;SDS011;8249;48.708;9.030;2022-08-21T07:05:54;4.80;;;3.63;;
16282;SDS011;8249;48.708;9.030;2022-08-21T07:08:23;4.53;;;3.33;;
16282;SDS011;8249;48.708;9.030;2022-08-21T07:10:51;6.83;;;3.70;;
16282;SDS011;8249;48.708;9.030;2022-08-21T07:13:19;5.80;;;3.50;;
16282;SDS011;8249;48.708;9.030;2022-08-21T07:15:46;5.47;;;3.53;;
16282;SDS011;8249;48.708;9.030;2022-08-21T07:18:15;3.40;;;3.10;;
16282;SDS011;8249;48.708;9.030;2022-08-21T07:20:42;6.17;;;3.30;;
16282;SDS011;8249;48.708;9.030;2022-08-21T07:23:11;5.63;;;3.40;;
16282;SDS011;8249;48.708;9.030;2022-08-21T07:25:46;6.80;;;3.47;;
16282;SDS011;8249;48.708;9.030;2022-08-21T07:28:13;5.03;;;3.30;;
16282;SDS011;8249;48.708;9.030;2022-08-21T07:30:40;4.17;;;3.30;;
16282;SDS011;8249;48.708;9.030;2022-08-21T07:33:07;5.93;;;3.60;;
16282;SDS011;8249;48.708;9.030;2022-08-21T07:35:36;4.33;;;3.30;;
16282;SDS011;8249;48.708;9.030;2022-08-21T07:38:03;5.30;;;3.60;;
16282;SDS011;8249;48.708;9.030;2022-08-21T07:40:30;5.87;;;3.40;;
16282;SDS011;8249;48.708;9.030;2022-08-21T07:42:56;5.47;;;3.53;;
16282;SDS011;8249;48.708;9.030;2022-08-21T07:45:23;6.27;;;3.63;;
16282;SDS011;8249;48.708;9.030;2022-08-21T07:47:51;5.47;;;3.40;;
16282;SDS011;8249;48.708;9.030;2022-08-21T07:50:18;9.43;;;3.90;;
16282;SDS011;8249;48.708;9.030;2022-08-21T07:52:47;4.93;;;3.73;;
16282;SDS011;8249;48.708;9.030;2022-08-21T07:55:16;6.30;;;3.40;;
16282;SDS011;8249;48.708;9.030;2022-08-21T07:57:45;5.47;;;3.13;;
16282;SDS011;8249;48.708;9.030;2022-08-21T08:00:13;4.85;;;3.22;;
16282;SDS011;8249;48.708;9.030;2022-08-21T08:02:44;5.78;;;3.53;;
16282;SDS011;8249;48.708;9.030;2022-08-21T08:05:14;6.07;;;3.67;;
16282;SDS011;8249;48.708;9.030;2022-08-21T08:07:42;5.73;;;3.50;;
16282;SDS011;8249;48.708;9.030;2022-08-21T08:10:11;4.50;;;3.35;;
16282;SDS011;8249;48.708;9.030;2022-08-21T08:12:38;4.10;;;3.25;;
16282;SDS011;8249;48.708;9.030;2022-08-21T08:15:09;4.97;;;3.55;;
16282;SDS011;8249;48.708;9.030;2022-08-21T08:17:37;5.75;;;3.45;;
16282;SDS011;8249;48.708;9.030;2022-08-21T08:20:04;3.95;;;3.53;;
16282;SDS011;8249;48.708;9.030;2022-08-21T08:22:33;5.93;;;3.25;;
16282;SDS011;8249;48.708;9.030;2022-08-21T08:25:01;5.57;;;3.50;;
16282;SDS011;8249;48.708;9.030;2022-08-21T08:27:30;3.80;;;3.30;;
16282;SDS011;8249;48.708;9.030;2022-08-21T08:29:57;5.03;;;3.60;;
16282;SDS011;8249;48.708;9.030;2022-08-21T08:32:24;6.38;;;3.13;;
16282;SDS011;8249;48.708;9.030;2022-08-21T08:34:52;5.35;;;3.55;;
16282;SDS011;8249;48.708;9.030;2022-08-21T08:37:19;4.80;;;3.45;;
16282;SDS011;8249;48.708;9.030;2022-08-21T08:39:47;3.42;;;3.03;;
16282;SDS011;8249;48.708;9.030;2022-08-21T08:42:15;5.55;;;3.67;;
16282;SDS011;8249;48.708;9.030;2022-08-21T08:44:47;11.20;;;3.97;;
16282;SDS011;8249;48.708;9.030;2022-08-21T08:47:15;9.38;;;3.40;;
16282;SDS011;8249;48.708;9.030;2022-08-21T08:49:46;7.00;;;3.50;;
16282;SDS011;8249;48.708;9.030;2022-08-21T08:52:27;5.55;;;3.45;;
16282;SDS011;8249;48.708;9.030;2022-08-21T08:54:59;6.03;;;3.25;;
16282;SDS011;8249;48.708;9.030;2022-08-21T08:57:29;5.75;;;3.30;;
16282;SDS011;8249;48.708;9.030;2022-08-21T08:59:59;7.20;;;3.40;;
16282;SDS011;8249;48.708;9.030;2022-08-21T09:02:29;4.55;;;3.33;;
16282;SDS011;8249;48.708;9.030;2022-08-21T09:04:58;6.30;;;3.00;;
16282;SDS011;8249;48.708;9.030;2022-08-21T09:07:31;3.97;;;3.00;;
16282;SDS011;8249;48.708;9.030;2022-08-21T09:10:06;4.40;;;3.20;;
16282;SDS011;8249;48.708;9.030;2022-08-21T09:12:45;5.55;;;2.90;;
16282;SDS011;8249;48.708;9.030;2022-08-21T09:15:22;6.50;;;3.70;;
16282;SDS011;8249;48.708;9.030;2022-08-21T09:17:59;4.57;;;3.05;;
16282;SDS011;8249;48.708;9.030;2022-08-21T09:20:47;3.63;;;2.90;;
16282;SDS011;8249;48.708;9.030;2022-08-21T09:23:29;4.20;;;2.85;;
16282;SDS011;8249;48.708;9.030;2022-08-21T09:26:05;6.40;;;2.80;;
16282;SDS011;8249;48.708;9.030;2022-08-21T09:28:37;6.15;;;2.95;;
16282;SDS011;8249;48.708;9.030;2022-08-21T09:31:08;5.20;;;3.15;;
16282;SDS011;8249;48.708;9.030;2022-08-21T09:33:49;5.13;;;3.15;;
16282;SDS011;8249;48.708;9.030;2022-08-21T09:36:22;7.35;;;3.00;;
16282;SDS011;8249;48.708;9.030;2022-08-21T09:38:54;5.40;;;3.00;;
16282;SDS011;8249;48.708;9.030;2022-08-21T09:41:25;3.65;;;2.88;;
16282;SDS011;8249;48.708;9.030;2022-08-21T09:43:53;4.20;;;2.70;;
16282;SDS011;8249;48.708;9.030;2022-08-21T09:46:23;5.20;;;2.80;;
16282;SDS011;8249;48.708;9.030;2022-08-21T09:48:52;3.35;;;2.80;;
16282;SDS011;8249;48.708;9.030;2022-08-21T09:51:22;4.65;;;2.75;;
16282;SDS011;8249;48.708;9.030;2022-08-21T09:53:51;7.65;;;3.20;;
16282;SDS011;8249;48.708;9.030;2022-08-21T09:56:25;7.82;;;3.22;;
16282;SDS011;8249;48.708;9.030;2022-08-21T09:59:24;5.75;;;2.60;;
16282;SDS011;8249;48.708;9.030;2022-08-21T10:01:57;4.43;;;3.10;;
16282;SDS011;8249;48.708;9.030;2022-08-21T10:04:28;4.88;;;3.08;;
16282;SDS011;8249;48.708;9.030;2022-08-21T10:07:05;4.32;;;2.83;;
16282;SDS011;8249;48.708;9.030;2022-08-21T10:09:33;5.47;;;3.13;;
16282;SDS011;8249;48.708;9.030;2022-08-21T10:12:10;3.28;;;2.78;;
16282;SDS011;8249;48.708;9.030;2022-08-21T10:14:44;4.63;;;2.65;;
16282;SDS011;8249;48.708;9.030;2022-08-21T10:17:20;3.25;;;2.75;;
16282;SDS011;8249;48.708;9.030;2022-08-21T10:19:54;3.75;;;2.60;;
16282;SDS011;8249;48.708;9.030;2022-08-21T10:22:32;5.65;;;2.72;;
16282;SDS011;8249;48.708;9.030;2022-08-21T10:25:09;3.22;;;2.53;;
16282;SDS011;8249;48.708;9.030;2022-08-21T10:27:44;4.35;;;2.58;;
16282;SDS011;8249;48.708;9.030;2022-08-21T10:30:23;2.72;;;2.50;;
16282;SDS011;8249;48.708;9.030;2022-08-21T10:33:07;2.50;;;2.30;;
16282;SDS011;8249;48.708;9.030;2022-08-21T10:35:55;3.65;;;2.30;;
16282;SDS011;8249;48.708;9.030;2022-08-21T10:38:38;4.72;;;2.60;;
16282;SDS011;8249;48.708;9.030;2022-08-21T10:41:23;4.88;;;2.95;;
16282;SDS011;8249;48.708;9.030;2022-08-21T10:44:00;3.53;;;2.53;;
16282;SDS011;8249;48.708;9.030;2022-08-21T10:46:38;4.75;;;3.20;;
16282;SDS011;8249;48.708;9.030;2022-08-21T10:49:16;4.07;;;2.80;;
16282;SDS011;8249;48.708;9.030;2022-08-21T10:51:54;4.63;;;2.85;;
16282;SDS011;8249;48.708;9.030;2022-08-21T10:54:31;3.40;;;2.85;;
16282;SDS011;8249;48.708;9.030;2022-08-21T10:57:06;3.42;;;2.80;;
16282;SDS011;8249;48.708;9.030;2022-08-21T10:59:43;5.30;;;2.70;;
16282;SDS011;8249;48.708;9.030;2022-08-21T11:02:17;2.95;;;2.60;;
16282;SDS011;8249;48.708;9.030;2022-08-21T11:04:52;4.53;;;3.03;;
16282;SDS011;8249;48.708;9.030;2022-08-21T11:07:26;4.75;;;2.75;;
16282;SDS011;8249;48.708;9.030;2022-08-21T11:09:57;4.50;;;2.72;;
16282;SDS011;8249;48.708;9.030;2022-08-21T11:12:30;4.35;;;2.80;;
16282;SDS011;8249;48.708;9.030;2022-08-21T11:15:04;4.15;;;3.33;;
16282;SDS011;8249;48.708;9.030;2022-08-21T11:17:39;5.35;;;3.35;;
16282;SDS011;8249;48.708;9.030;2022-08-21T11:20:13;3.13;;;2.67;;
16282;SDS011;8249;48.708;9.030;2022-08-21T11:22:49;2.97;;;2.70;;
16282;SDS011;8249;48.708;9.030;2022-08-21T11:25:21;4.00;;;3.20;;
16282;SDS011;8249;48.708;9.030;2022-08-21T11:27:52;4.57;;;3.03;;
16282;SDS011;8249;48.708;9.030;2022-08-21T11:30:24;4.65;;;2.97;;
16282;SDS011;8249;48.708;9.030;2022-08-21T11:33:05;6.40;;;3.30;;
16282;SDS011;8249;48.708;9.030;2022-08-21T11:35:46;6.40;;;3.50;;
16282;SDS011;8249;48.708;9.030;2022-08-21T11:38:22;4.72;;;3.13;;
16282;SDS011;8249;48.708;9.030;2022-08-21T11:41:02;9.07;;;3.33;;
16282;SDS011;8249;48.708;9.030;2022-08-21T11:43:43;4.00;;;2.88;;
16282;SDS011;8249;48.708;9.030;2022-08-21T11:46:23;4.07;;;2.90;;
16282;SDS011;8249;48.708;9.030;2022-08-21T11:48:59;2.92;;;2.65;;
16282;SDS011;8249;48.708;9.030;2022-08-21T11:51:38;3.80;;;2.85;;
16282;SDS011;8249;48.708;9.030;2022-08-21T11:54:12;3.70;;;2.55;;
16282;SDS011;8249;48.708;9.030;2022-08-21T11:56:48;5.50;;;3.03;;
16282;SDS011;8249;48.708;9.030;2022-08-21T11:59:20;3.92;;;2.90;;
16282;SDS011;8249;48.708;9.030;2022-08-21T12:01:50;2.85;;;2.58;;
16282;SDS011;8249;48.708;9.030;2022-08-21T12:04:18;4.35;;;2.78;;
16282;SDS011;8249;48.708;9.030;2022-08-21T12:06:54;4.47;;;2.65;;
16282;SDS011;8249;48.708;9.030;2022-08-21T12:09:29;3.30;;;2.50;;
16282;SDS011;8249;48.708;9.030;2022-08-21T12:12:01;4.38;;;2.80;;
16282;SDS011;8249;48.708;9.030;2022-08-21T12:14:37;5.05;;;2.53;;
16282;SDS011;8249;48.708;9.030;2022-08-21T12:17:07;5.88;;;2.83;;
16282;SDS011;8249;48.708;9.030;2022-08-21T12:19:35;3.53;;;2.80;;
16282;SDS011;8249;48.708;9.030;2022-08-21T12:22:09;3.70;;;2.50;;
16282;SDS011;8249;48.708;9.030;2022-08-21T12:24:39;4.22;;;2.70;;
16282;SDS011;8249;48.708;9.030;2022-08-21T12:27:19;3.20;;;2.90;;
16282;SDS011;8249;48.708;9.030;2022-08-21T12:29:51;7.30;;;3.10;;
16282;SDS011;8249;48.708;9.030;2022-08-21T12:32:23;3.88;;;3.03;;
16282;SDS011;8249;48.708;9.030;2022-08-21T12:34:53;5.65;;;2.90;;
16282;SDS011;8249;48.708;9.030;2022-08-21T12:37:30;3.22;;;2.92;;
16282;SDS011;8249;48.708;9.030;2022-08-21T12:40:05;5.57;;;3.30;;
16282;SDS011;8249;48.708;9.030;2022-08-21T12:42:41;4.70;;;3.15;;
16282;SDS011;8249;48.708;9.030;2022-08-21T12:45:17;6.40;;;2.95;;
16282;SDS011;8249;48.708;9.030;2022-08-21T12:47:47;6.20;;;3.28;;
16282;SDS011;8249;48.708;9.030;2022-08-21T12:50:19;5.63;;;3.50;;
16282;SDS011;8249;48.708;9.030;2022-08-21T12:52:54;4.63;;;3.60;;
16282;SDS011;8249;48.708;9.030;2022-08-21T12:55:26;4.95;;;3.20;;
16282;SDS011;8249;48.708;9.030;2022-08-21T12:57:54;4.07;;;3.38;;
16282;SDS011;8249;48.708;9.030;2022-08-21T13:00:23;6.55;;;3.30;;
16282;SDS011;8249;48.708;9.030;2022-08-21T13:02:51;6.43;;;3.60;;
16282;SDS011;8249;48.708;9.030;2022-08-21T13:05:23;6.07;;;3.17;;
16282;SDS011;8249;48.708;9.030;2022-08-21T13:07:56;5.72;;;3.20;;
16282;SDS011;8249;48.708;9.030;2022-08-21T13:10:24;4.53;;;3.35;;
16282;SDS011;8249;48.708;9.030;2022-08-21T13:12:54;5.78;;;3.60;;
16282;SDS011;8249;48.708;9.030;2022-08-21T13:15:25;8.20;;;3.45;;
16282;SDS011;8249;48.708;9.030;2022-08-21T13:17:54;4.03;;;3.38;;
16282;SDS011;8249;48.708;9.030;2022-08-21T13:20:27;4.88;;;3.22;;
16282;SDS011;8249;48.708;9.030;2022-08-21T13:22:57;6.45;;;3.15;;
16282;SDS011;8249;48.708;9.030;2022-08-21T13:25:27;5.70;;;2.92;;
16282;SDS011;8249;48.708;9.030;2022-08-21T13:27:58;3.75;;;3.40;;
16282;SDS011;8249;48.708;9.030;2022-08-21T13:30:27;4.85;;;3.10;;
16282;SDS011;8249;48.708;9.030;2022-08-21T13:32:55;5.70;;;3.13;;
16282;SDS011;8249;48.708;9.030;2022-08-21T13:35:26;5.20;;;3.20;;
16282;SDS011;8249;48.708;9.030;2022-08-21T13:37:58;5.72;;;3.03;;
16282;SDS011;8249;48.708;9.030;2022-08-21T13:40:28;5.78;;;3.40;;
16282;SDS011;8249;48.708;9.030;2022-08-21T13:42:57;3.75;;;3.22;;
16282;SDS011;8249;48.708;9.030;2022-08-21T13:45:29;3.38;;;2.78;;
16282;SDS011;8249;48.708;9.030;2022-08-21T13:47:59;3.83;;;2.80;;
16282;SDS011;8249;48.708;9.030;2022-08-21T13:50:27;4.13;;;2.88;;
16282;SDS011;8249;48.708;9.030;2022-08-21T13:52:56;3.25;;;2.70;;
16282;SDS011;8249;48.708;9.030;2022-08-21T13:55:33;6.57;;;2.72;;
16282;SDS011;8249;48.708;9.030;2022-08-21T13:58:03;6.40;;;3.83;;
16282;SDS011;8249;48.708;9.030;2022-08-21T14:00:32;5.60;;;3.00;;
16282;SDS011;8249;48.708;9.030;2022-08-21T14:03:04;3.83;;;3.10;;
16282;SDS011;8249;48.708;9.030;2022-08-21T14:05:34;3.80;;;2.75;;
16282;SDS011;8249;48.708;9.030;2022-08-21T14:08:06;4.85;;;3.45;;
16282;SDS011;8249;48.708;9.030;2022-08-21T14:10:40;4.63;;;2.88;;
16282;SDS011;8249;48.708;9.030;2022-08-21T14:13:15;3.78;;;2.83;;
16282;SDS011;8249;48.708;9.030;2022-08-21T14:15:59;3.90;;;2.85;;
16282;SDS011;8249;48.708;9.030;2022-08-21T14:18:27;3.63;;;3.30;;
16282;SDS011;8249;48.708;9.030;2022-08-21T14:21:03;4.93;;;2.97;;
16282;SDS011;8249;48.708;9.030;2022-08-21T14:23:32;3.28;;;2.75;;
16282;SDS011;8249;48.708;9.030;2022-08-21T14:26:00;5.32;;;3.00;;
16282;SDS011;8249;48.708;9.030;2022-08-21T14:28:31;5.97;;;3.10;;
16282;SDS011;8249;48.708;9.030;2022-08-21T14:31:10;4.72;;;3.35;;
16282;SDS011;8249;48.708;9.030;2022-08-21T14:33:39;4.07;;;3.20;;
16282;SDS011;8249;48.708;9.030;2022-08-21T14:36:06;5.63;;;3.38;;
16282;SDS011;8249;48.708;9.030;2022-08-21T14:38:35;3.65;;;3.00;;
16282;SDS011;8249;48.708;9.030;2022-08-21T14:41:07;3.40;;;2.80;;
16282;SDS011;8249;48.708;9.030;2022-08-21T14:43:41;3.90;;;2.80;;
16282;SDS011;8249;48.708;9.030;2022-08-21T14:46:08;4.10;;;3.20;;
16282;SDS011;8249;48.708;9.030;2022-08-21T14:48:35;3.17;;;2.72;;
16282;SDS011;8249;48.708;9.030;2022-08-21T14:51:02;3.80;;;2.65;;
16282;SDS011;8249;48.708;9.030;2022-08-21T14:53:29;4.43;;;3.10;;
16282;SDS011;8249;48.708;9.030;2022-08-21T14:55:58;5.43;;;2.80;;
16282;SDS011;8249;48.708;9.030;2022-08-21T14:58:32;5.82;;;2.78;;
16282;SDS011;8249;48.708;9.030;2022-08-21T15:01:00;3.03;;;2.70;;
16282;SDS011;8249;48.708;9.030;2022-08-21T15:03:29;3.25;;;2.50;;
16282;SDS011;8249;48.708;9.030;2022-08-21T15:05:56;4.82;;;3.10;;
16282;SDS011;8249;48.708;9.030;2022-08-21T15:08:23;3.35;;;2.75;;
16282;SDS011;8249;48.708;9.030;2022-08-21T15:10:51;5.05;;;3.13;;
16282;SDS011;8249;48.708;9.030;2022-08-21T15:13:20;4.30;;;3.08;;
16282;SDS011;8249;48.708;9.030;2022-08-21T15:15:48;3.70;;;2.80;;
16282;SDS011;8249;48.708;9.030;2022-08-21T15:18:17;4.68;;;2.97;;